Time;durP1;ratioP1;P1;durP2;ratioP2;P2;SDS_P1;SDS_P2;PMS_P1;PMS_P2;Temp;Humidity;BMP_temperature;BMP_pressure;BME280_temperature;BME280_humidity;BME280_pressure;Samples;Min_cycle;Max_cycle;Signal;HPM_P1;HPM_P2
2023/09/30 00:00:01;;;;;;;31.60;12.82;;;;;;;20.23;51.41;100351.56;5067853;28;20468;-83
2023/09/30 00:02:27;;;;;;;25.17;11.82;;;;;;;20.09;51.54;100355.94;5062319;28;20486;-83
2023/09/30 00:04:52;;;;;;;30.13;11.93;;;;;;;19.97;52.11;100351.63;5048985;28;20421;-81
2023/09/30 00:07:21;;;;;;;26.65;11.00;;;;;;;19.77;53.52;100346.25;5049176;28;20484;-80
2023/09/30 00:09:49;;;;;;;28.85;11.32;;;;;;;19.86;56.28;100355.44;5050531;28;20052;-83
2023/09/30 00:12:16;;;;;;;;;;;;;;;19.74;56.25;100358.44;5054356;28;20457;-81
2023/09/30 00:14:42;;;;;;;20.35;8.68;;;;;;;19.75;55.37;100341.09;5058064;28;19912;-81
2023/09/30 00:17:07;;;;;;;22.75;9.32;;;;;;;19.46;54.14;100305.69;5049102;28;20029;-84
2023/09/30 00:19:33;;;;;;;16.33;8.27;;;;;;;19.71;56.52;100333.81;5048839;28;20476;-81
2023/09/30 00:22:00;;;;;;;13.55;6.45;;;;;;;19.75;55.66;100308.63;5051895;28;20047;-81
2023/09/30 00:24:26;;;;;;;14.30;6.90;;;;;;;20.05;56.08;100347.53;5049348;28;20029;-81
2023/09/30 00:26:51;;;;;;;19.02;6.88;;;;;;;19.91;53.56;100333.78;5049169;28;20517;-80
2023/09/30 00:29:17;;;;;;;16.45;6.57;;;;;;;19.95;56.19;100348.38;5050459;28;20470;-81
2023/09/30 00:31:44;;;;;;;13.48;6.10;;;;;;;20.03;55.42;100325.34;5054580;28;20025;-80
2023/09/30 00:34:09;;;;;;;13.30;5.93;;;;;;;19.96;57.25;100314.81;5067367;28;20033;-80
2023/09/30 00:36:35;;;;;;;14.68;6.20;;;;;;;20.03;56.46;100328.88;5057199;28;20087;-80
2023/09/30 00:39:00;;;;;;;13.18;5.95;;;;;;;19.81;55.41;100323.78;5068995;28;20106;-81
2023/09/30 00:41:26;;;;;;;10.65;5.65;;;;;;;19.64;56.32;100317.84;5062676;28;20032;-81
2023/09/30 00:43:51;;;;;;;11.55;6.03;;;;;;;19.54;57.83;100318.66;5059340;28;20418;-82
2023/09/30 00:46:29;;;;;;;8.70;6.53;;;;;;;19.42;57.59;100337.06;5070450;28;20143;-81
2023/09/30 00:48:56;;;;;;;12.30;5.72;;;;;;;19.22;58.76;100327.03;5065037;28;20033;-80
2023/09/30 00:51:23;;;;;;;10.55;5.70;;;;;;;19.31;58.02;100335.41;5065515;28;20060;-84
2023/09/30 00:53:51;;;;;;;13.65;6.05;;;;;;;18.84;60.72;100299.47;5060458;28;20481;-81
2023/09/30 00:56:23;;;;;;;11.32;5.88;;;;;;;19.44;58.08;100322.16;5070138;28;20028;-84
2023/09/30 00:58:51;;;;;;;11.38;6.97;;;;;;;19.14;59.36;100304.06;5076806;28;20032;-82
2023/09/30 01:01:18;;;;;;;21.40;7.00;;;;;;;19.28;59.82;100305.13;5073567;28;20115;-81
2023/09/30 01:03:45;;;;;;;13.85;6.38;;;;;;;19.38;59.00;100303.53;5065478;28;20124;-81
2023/09/30 01:06:10;;;;;;;22.23;7.57;;;;;;;19.29;58.56;100295.16;5064243;28;20056;-80
2023/09/30 01:08:36;;;;;;;18.55;8.70;;;;;;;19.48;57.81;100320.53;5062100;28;20374;-80
2023/09/30 01:11:01;;;;;;;18.45;8.65;;;;;;;19.40;57.54;100328.41;5074593;28;20039;-80
2023/09/30 01:13:37;;;;;;;16.20;8.02;;;;;;;19.52;59.53;100315.41;5073156;28;20082;-80
2023/09/30 01:16:12;;;;;;;14.05;6.13;;;;;;;19.43;58.34;100285.41;5075316;28;20106;-80
2023/09/30 01:18:38;;;;;;;11.85;5.72;;;;;;;19.44;58.46;100329.47;5071254;28;20035;-81
2023/09/30 01:21:05;;;;;;;25.77;9.57;;;;;;;19.61;59.12;100330.00;5056320;28;20519;-84
2023/09/30 01:23:32;;;;;;;28.27;12.07;;;;;;;19.30;58.41;100295.97;5060232;28;20032;-83
2023/09/30 01:25:58;;;;;;;16.35;8.27;;;;;;;19.22;59.83;100311.63;5055244;28;20033;-85
2023/09/30 01:28:24;;;;;;;13.48;5.78;;;;;;;19.46;60.45;100327.31;5055030;28;20028;-82
2023/09/30 01:30:51;;;;;;;13.18;5.90;;;;;;;19.44;58.66;100314.06;5057060;28;20040;-81
2023/09/30 01:33:18;;;;;;;10.38;5.45;;;;;;;19.07;60.75;100293.53;5060603;28;20028;-81
2023/09/30 01:35:44;;;;;;;11.57;5.43;;;;;;;19.06;61.17;100318.09;5060282;28;20056;-87
2023/09/30 01:38:10;;;;;;;12.93;5.10;;;;;;;19.06;60.25;100313.53;5075906;28;20504;-85
2023/09/30 01:40:37;;;;;;;12.63;5.57;;;;;;;18.79;60.68;100302.94;5059308;28;20028;-81
2023/09/30 01:43:03;;;;;;;11.35;4.88;;;;;;;18.95;60.81;100321.91;5054764;28;20036;-82
2023/09/30 01:45:28;;;;;;;10.65;5.18;;;;;;;18.78;61.62;100312.09;5053013;28;20017;-81
2023/09/30 01:47:56;;;;;;;8.13;5.32;;;;;;;18.35;62.44;100287.16;5071291;28;20048;-81
2023/09/30 01:50:21;;;;;;;10.05;5.05;;;;;;;18.66;62.11;100293.44;5072755;28;20060;-81
2023/09/30 01:52:46;;;;;;;12.57;5.60;;;;;;;18.72;61.53;100309.69;5060191;28;20060;-81
2023/09/30 01:55:12;;;;;;;10.20;6.00;;;;;;;18.58;62.73;100285.06;5052189;28;20033;-81
2023/09/30 01:57:37;;;;;;;10.85;4.93;;;;;;;18.92;63.82;100323.25;5053310;28;20413;-80
2023/09/30 02:00:04;;;;;;;10.73;5.25;;;;;;;18.78;63.62;100304.00;5052510;28;20040;-80
2023/09/30 02:02:30;;;;;;;9.77;4.95;;;;;;;18.46;62.71;100272.59;5060635;28;20025;-81
2023/09/30 02:04:56;;;;;;;10.85;5.93;;;;;;;18.56;61.38;100298.81;5071580;28;20032;-81
2023/09/30 02:07:22;;;;;;;12.57;5.22;;;;;;;18.64;62.36;100321.81;5065156;28;20083;-84
2023/09/30 02:09:48;;;;;;;15.32;5.57;;;;;;;18.68;62.05;100301.28;5072524;28;20055;-80
2023/09/30 02:12:13;;;;;;;9.68;5.07;;;;;;;18.55;62.57;100285.56;5073084;28;20027;-81
2023/09/30 02:14:39;;;;;;;9.23;5.40;;;;;;;18.50;62.89;100299.06;5063038;28;20032;-82
2023/09/30 02:17:04;;;;;;;9.50;5.30;;;;;;;18.33;62.23;100293.88;5051230;28;20061;-81
2023/09/30 02:19:33;;;;;;;14.50;5.53;;;;;;;17.97;63.40;100293.75;5056094;28;20032;-80
2023/09/30 02:21:59;;;;;;;10.88;5.60;;;;;;;17.92;63.60;100307.19;5066374;28;20477;-81
2023/09/30 02:24:25;;;;;;;12.40;5.82;;;;;;;17.84;66.76;100298.53;5055013;28;20021;-80
2023/09/30 02:26:50;;;;;;;10.38;5.60;;;;;;;17.92;62.68;100283.75;5056847;28;20042;-82
2023/09/30 02:29:16;;;;;;;10.13;5.50;;;;;;;17.87;64.48;100302.59;5072403;28;20032;-85
2023/09/30 02:31:41;;;;;;;13.98;6.68;;;;;;;17.90;62.46;100290.44;5071495;28;20053;-81
2023/09/30 02:34:08;;;;;;;18.00;7.95;;;;;;;17.89;64.85;100297.75;5050808;28;20037;-80
2023/09/30 02:36:36;;;;;;;23.92;10.45;;;;;;;17.92;64.41;100282.91;5051954;28;20029;-81
2023/09/30 02:39:01;;;;;;;32.38;14.48;;;;;;;18.09;62.50;100304.31;5052372;28;20080;-80
2023/09/30 02:41:26;;;;;;;31.77;13.88;;;;;;;18.07;62.95;100312.69;5068839;28;20059;-81
2023/09/30 02:43:52;;;;;;;30.25;13.85;;;;;;;17.89;64.51;100289.63;5055869;28;20029;-84
2023/09/30 02:46:19;;;;;;;20.85;10.63;;;;;;;18.09;66.21;100307.81;5053859;28;20028;-81
2023/09/30 02:48:45;;;;;;;22.60;10.23;;;;;;;18.07;64.54;100297.28;5052146;28;20043;-81
2023/09/30 02:51:11;;;;;;;17.83;9.15;;;;;;;17.77;65.04;100289.00;5050385;28;20033;-81
2023/09/30 02:53:36;;;;;;;19.25;9.40;;;;;;;17.68;66.40;100278.72;5050399;28;20040;-81
2023/09/30 02:56:04;;;;;;;22.38;9.68;;;;;;;17.77;64.45;100291.69;5051713;28;20111;-82
2023/09/30 02:58:29;;;;;;;22.33;9.77;;;;;;;17.50;63.94;100303.41;5051874;28;20478;-80
2023/09/30 03:00:55;;;;;;;19.42;7.68;;;;;;;17.50;64.23;100308.00;5061692;28;20075;-87
2023/09/30 03:03:21;;;;;;;15.98;7.60;;;;;;;17.35;64.63;100316.78;5061530;28;20383;-81
2023/09/30 03:05:49;;;;;;;12.90;6.85;;;;;;;17.26;66.33;100287.59;5051595;28;20117;-81
2023/09/30 03:08:15;;;;;;;14.05;6.03;;;;;;;17.24;63.20;100283.53;5070882;28;20032;-81
2023/09/30 03:10:41;;;;;;;17.48;6.40;;;;;;;17.23;64.07;100292.69;5063733;28;20033;-81
2023/09/30 03:13:08;;;;;;;13.10;6.18;;;;;;;17.05;66.00;100296.59;5050791;28;20064;-81
2023/09/30 03:15:35;;;;;;;12.43;6.88;;;;;;;16.98;64.56;100269.03;5058238;28;20114;-81
2023/09/30 03:18:00;;;;;;;13.13;6.15;;;;;;;17.01;65.72;100298.16;5070989;28;20035;-83
2023/09/30 03:20:26;;;;;;;9.43;5.75;;;;;;;16.97;66.66;100302.44;5071504;28;20028;-81
2023/09/30 03:22:52;;;;;;;9.88;5.55;;;;;;;16.71;66.37;100285.19;5066824;28;20017;-80
2023/09/30 03:25:20;;;;;;;16.40;5.78;;;;;;;16.82;66.72;100281.56;5049775;28;20040;-81
2023/09/30 03:27:46;;;;;;;11.48;6.45;;;;;;;17.02;68.26;100279.06;5050975;28;20029;-80
2023/09/30 03:30:15;;;;;;;10.88;6.53;;;;;;;17.15;68.72;100280.50;5050584;28;20079;-81
2023/09/30 03:32:44;;;;;;;15.93;7.60;;;;;;;16.72;68.25;100293.00;5050736;28;20025;-80
2023/09/30 03:35:14;;;;;;;19.65;9.05;;;;;;;17.05;68.24;100275.03;5053114;28;20036;-81
2023/09/30 03:37:41;;;;;;;26.08;10.00;;;;;;;16.90;66.67;100293.72;5058530;28;20079;-81
2023/09/30 03:40:12;;;;;;;37.25;14.13;;;;;;;16.92;66.84;100291.59;5051014;28;20033;-81
2023/09/30 03:42:39;;;;;;;32.30;14.32;;;;;;;16.95;67.54;100318.03;5069866;28;20024;-80
2023/09/30 03:45:09;;;;;;;51.97;21.08;;;;;;;16.89;67.86;100292.13;5052644;28;20036;-81
2023/09/30 03:47:38;;;;;;;69.75;27.33;;;;;;;16.92;66.57;100302.38;5050567;28;20057;-82
2023/09/30 03:50:04;;;;;;;39.10;17.42;;;;;;;17.17;68.43;100310.69;5050849;28;20115;-81
2023/09/30 03:52:33;;;;;;;25.00;12.70;;;;;;;17.20;65.79;100294.03;5050530;28;20029;-82
2023/09/30 03:55:05;;;;;;;22.27;10.77;;;;;;;17.13;65.06;100298.00;5068130;28;20027;-82
2023/09/30 03:57:33;;;;;;;23.10;9.25;;;;;;;17.01;65.88;100317.03;5051076;28;20425;-82
2023/09/30 04:00:00;;;;;;;19.92;9.13;;;;;;;16.91;67.14;100322.31;5049252;28;20496;-82
2023/09/30 04:02:25;;;;;;;17.35;8.90;;;;;;;16.58;68.48;100292.59;5063979;28;20062;-80
2023/09/30 04:04:53;;;;;;;16.15;6.88;;;;;;;16.55;70.17;100289.59;5055589;28;20425;-81
2023/09/30 04:07:19;;;;;;;15.13;6.55;;;;;;;16.46;68.28;100300.81;5049954;28;20044;-81
2023/09/30 04:09:44;;;;;;;13.00;6.30;;;;;;;16.23;69.72;100291.13;5050177;28;20037;-84
2023/09/30 04:12:10;;;;;;;12.65;6.95;;;;;;;16.31;70.64;100297.94;5049228;28;20052;-81
2023/09/30 04:14:35;;;;;;;15.15;6.45;;;;;;;16.16;73.23;100300.44;5050181;28;20020;-82
2023/09/30 04:17:00;;;;;;;13.27;7.10;;;;;;;16.33;73.04;100292.31;5062484;28;20107;-81
2023/09/30 04:19:26;;;;;;;17.55;7.13;;;;;;;16.40;72.08;100295.63;5049028;28;20029;-81
2023/09/30 04:21:51;;;;;;;19.48;7.07;;;;;;;16.71;70.97;100307.53;5049930;28;20843;-81
2023/09/30 04:24:18;;;;;;;17.52;7.45;;;;;;;16.91;68.98;100301.56;5051081;28;20132;-82
2023/09/30 04:26:44;;;;;;;26.67;12.07;;;;;;;16.77;69.53;100317.28;5061573;28;20179;-84
2023/09/30 04:29:10;;;;;;;38.22;14.10;;;;;;;16.52;67.59;100293.59;5053133;28;20115;-81
2023/09/30 04:31:38;;;;;;;49.25;18.70;;;;;;;16.85;70.83;100314.16;5054079;28;20141;-80
2023/09/30 04:34:04;;;;;;;35.22;15.35;;;;;;;16.64;68.75;100312.31;5067723;28;20501;-84
2023/09/30 04:36:30;;;;;;;27.30;11.23;;;;;;;16.35;68.83;100309.84;5061181;28;20036;-83
2023/09/30 04:38:56;;;;;;;24.35;11.05;;;;;;;15.86;70.90;100289.03;5049067;28;20468;-82
2023/09/30 04:41:21;;;;;;;28.02;12.45;;;;;;;16.19;69.75;100305.34;5050149;28;20028;-84
2023/09/30 04:43:47;;;;;;;28.95;12.52;;;;;;;15.71;72.85;100322.94;5050525;28;20021;-83
2023/09/30 04:46:13;;;;;;;24.60;9.68;;;;;;;16.06;71.24;100320.78;5049909;28;20029;-83
2023/09/30 04:48:39;;;;;;;20.77;9.32;;;;;;;16.29;70.71;100313.53;5051131;28;20155;-82
2023/09/30 04:51:08;;;;;;;17.40;7.63;;;;;;;16.11;70.34;100287.75;5069419;28;20413;-84
2023/09/30 04:53:33;;;;;;;18.95;8.30;;;;;;;15.98;72.39;100337.34;5068542;28;20052;-84
2023/09/30 04:55:59;;;;;;;16.33;8.43;;;;;;;15.99;71.80;100322.81;5053099;28;20056;-83
2023/09/30 04:58:27;;;;;;;23.35;9.32;;;;;;;16.21;71.53;100339.00;5051703;28;21023;-83
2023/09/30 05:00:53;;;;;;;17.95;8.90;;;;;;;16.13;72.12;100327.84;5049218;28;20025;-83
2023/09/30 05:03:20;;;;;;;27.63;11.60;;;;;;;16.35;71.12;100304.44;5049123;28;20041;-82
2023/09/30 05:05:46;;;;;;;24.75;11.50;;;;;;;16.76;70.25;100331.84;5049953;28;20017;-84
2023/09/30 05:08:13;;;;;;;22.27;10.02;;;;;;;16.61;71.86;100329.78;5062347;28;20394;-83
2023/09/30 05:10:39;;;;;;;16.92;8.00;;;;;;;16.96;69.46;100330.44;5049447;28;20032;-83
2023/09/30 05:13:04;;;;;;;11.68;6.57;;;;;;;17.08;69.13;100339.19;5049421;28;20029;-83
2023/09/30 05:15:32;;;;;;;13.57;7.38;;;;;;;17.13;68.72;100335.72;5050666;28;20032;-82
2023/09/30 05:17:57;;;;;;;11.38;6.65;;;;;;;17.20;67.95;100326.38;5054634;28;20059;-83
2023/09/30 05:20:24;;;;;;;11.07;6.38;;;;;;;17.38;66.69;100335.13;5059666;28;20033;-83
2023/09/30 05:22:50;;;;;;;11.73;7.47;;;;;;;17.37;67.18;100325.44;5059574;28;20025;-84
2023/09/30 05:25:16;;;;;;;15.38;7.00;;;;;;;17.73;66.03;100355.34;5062976;28;20504;-84
2023/09/30 05:27:42;;;;;;;15.02;6.95;;;;;;;17.56;66.33;100345.50;5056646;28;20036;-85
2023/09/30 05:30:08;;;;;;;12.85;6.32;;;;;;;17.74;66.51;100347.00;5057268;28;20021;-83
2023/09/30 05:32:34;;;;;;;12.02;6.85;;;;;;;17.82;65.46;100348.41;5061096;28;20047;-83
2023/09/30 05:35:02;;;;;;;14.90;6.53;;;;;;;18.14;64.35;100359.13;5062779;28;21350;-82
2023/09/30 05:37:28;;;;;;;13.90;7.07;;;;;;;18.24;63.73;100352.97;5063428;28;20036;-83
2023/09/30 05:39:53;;;;;;;16.27;8.60;;;;;;;18.10;66.00;100365.31;5065322;28;20047;-83
2023/09/30 05:42:19;;;;;;;11.23;6.57;;;;;;;18.14;64.23;100363.72;5079803;28;20468;-82
2023/09/30 05:44:45;;;;;;;13.43;7.00;;;;;;;17.92;66.62;100348.50;5071993;28;20036;-82
2023/09/30 05:47:12;;;;;;;12.55;7.97;;;;;;;17.73;67.82;100321.06;5063936;28;20048;-82
2023/09/30 05:49:37;;;;;;;11.20;6.50;;;;;;;18.27;63.86;100355.16;5060038;28;20123;-83
2023/09/30 05:52:03;;;;;;;15.82;6.53;;;;;;;18.42;65.33;100352.50;5077476;28;20036;-82
2023/09/30 05:54:28;;;;;;;18.33;6.70;;;;;;;18.63;65.49;100353.41;5057744;28;20025;-83
2023/09/30 05:56:55;;;;;;;11.98;6.57;;;;;;;18.84;61.94;100375.91;5057672;28;20095;-81
2023/09/30 05:59:20;;;;;;;15.13;7.80;;;;;;;18.50;63.42;100374.69;5061465;28;20031;-84
2023/09/30 06:01:46;;;;;;;11.70;6.63;;;;;;;18.81;63.08;100364.81;5054480;28;20048;-81
2023/09/30 06:04:12;;;;;;;14.05;6.35;;;;;;;18.96;61.72;100380.25;5072072;28;20021;-84
2023/09/30 06:06:38;;;;;;;15.93;6.97;;;;;;;18.86;61.68;100352.16;5045561;28;20029;-80
2023/09/30 06:09:04;;;;;;;13.15;6.32;;;;;;;19.03;62.15;100378.94;5064853;28;20494;-81
2023/09/30 06:11:29;;;;;;;12.38;6.90;;;;;;;19.17;61.48;100379.22;5044581;28;20087;-81
2023/09/30 06:13:55;;;;;;;13.10;7.10;;;;;;;19.23;60.46;100369.25;5033726;28;20025;-81
2023/09/30 06:16:23;;;;;;;14.45;6.80;;;;;;;19.21;59.86;100369.50;5044584;28;20713;-83
2023/09/30 06:18:49;;;;;;;10.43;5.97;;;;;;;19.16;60.30;100372.19;5064529;28;20021;-85
2023/09/30 06:21:17;;;;;;;12.30;6.47;;;;;;;19.40;59.99;100369.78;5043728;28;20528;-82
2023/09/30 06:23:43;;;;;;;17.30;7.72;;;;;;;19.50;59.08;100360.84;5051831;28;20032;-81
2023/09/30 06:26:09;;;;;;;14.82;6.40;;;;;;;19.82;58.10;100376.03;5051357;28;20144;-81
2023/09/30 06:28:40;;;;;;;12.52;6.35;;;;;;;19.98;58.23;100393.88;5052353;28;20037;-82
2023/09/30 06:31:07;;;;;;;16.38;6.63;;;;;;;20.15;56.88;100381.91;5060614;28;20139;-81
2023/09/30 06:33:33;;;;;;;20.17;7.37;;;;;;;20.40;56.53;100372.88;5052591;28;20039;-81
2023/09/30 06:36:01;;;;;;;15.02;7.55;;;;;;;20.45;55.59;100370.97;5055977;28;20267;-80
2023/09/30 06:38:27;;;;;;;10.57;6.00;;;;;;;20.59;54.86;100378.53;5068393;28;20024;-81
2023/09/30 06:40:53;;;;;;;18.65;13.00;;;;;;;20.85;55.08;100395.47;5056252;28;20043;-82
2023/09/30 06:43:19;;;;;;;12.88;6.00;;;;;;;21.15;53.89;100399.91;5051040;28;20086;-80
2023/09/30 06:45:46;;;;;;;15.38;7.65;;;;;;;21.30;53.74;100398.19;5051099;28;20029;-80
2023/09/30 06:48:12;;;;;;;13.63;5.80;;;;;;;21.39;52.79;100372.06;5055422;28;20051;-81
2023/09/30 06:50:49;;;;;;;11.48;6.45;;;;;;;21.78;51.75;100392.91;5050608;28;20045;-81
2023/09/30 06:53:16;;;;;;;11.23;5.22;;;;;;;21.75;51.11;100396.22;5051122;28;20501;-82
2023/09/30 06:55:43;;;;;;;11.90;5.80;;;;;;;21.89;50.02;100396.38;5051575;28;20033;-80
2023/09/30 06:58:10;;;;;;;13.43;5.30;;;;;;;21.74;50.20;100372.88;5051286;28;20078;-82
2023/09/30 07:00:36;;;;;;;13.57;6.07;;;;;;;21.94;50.69;100391.69;5051660;28;20494;-81
2023/09/30 07:03:02;;;;;;;11.82;5.90;;;;;;;22.15;48.51;100359.69;5051360;28;20106;-79
2023/09/30 07:05:28;;;;;;;16.00;6.03;;;;;;;22.34;49.20;100381.50;5051698;28;20673;-79
2023/09/30 07:07:54;;;;;;;14.00;5.82;;;;;;;22.46;47.43;100384.63;5052137;28;20064;-81
2023/09/30 07:10:19;;;;;;;13.82;5.40;;;;;;;22.44;47.28;100392.25;5052516;28;20162;-78
2023/09/30 07:12:45;;;;;;;16.00;5.57;;;;;;;22.45;46.58;100366.72;5051047;28;20414;-80
2023/09/30 07:15:10;;;;;;;10.93;5.57;;;;;;;22.79;46.48;100392.91;5051784;28;20037;-81
2023/09/30 07:17:36;;;;;;;11.52;5.07;;;;;;;23.02;45.44;100387.72;5050728;28;20032;-80
2023/09/30 07:20:04;;;;;;;11.90;6.03;;;;;;;23.10;45.99;100351.69;5049891;28;21220;-81
2023/09/30 07:22:30;;;;;;;;;;;;;;;23.45;45.67;100398.50;5051876;28;20028;-80
2023/09/30 07:24:57;;;;;;;8.32;5.15;;;;;;;23.55;44.77;100379.25;5051512;28;20369;-83
2023/09/30 07:27:24;;;;;;;13.85;6.13;;;;;;;23.58;46.19;100397.75;5050273;28;20108;-81
2023/09/30 07:29:49;;;;;;;12.30;5.57;;;;;;;23.77;44.47;100389.53;5064610;28;20044;-84
2023/09/30 07:32:15;;;;;;;15.82;5.68;;;;;;;24.06;42.87;100408.34;5051365;28;20398;-80
2023/09/30 07:34:41;;;;;;;11.63;4.70;;;;;;;24.01;42.78;100397.56;5051097;28;20750;-79
2023/09/30 07:37:06;;;;;;;10.63;5.50;;;;;;;23.99;42.76;100390.81;5050578;28;20029;-83
2023/09/30 07:39:31;;;;;;;11.40;5.40;;;;;;;24.09;41.52;100395.22;5060901;28;20059;-82
2023/09/30 07:41:57;;;;;;;10.32;5.25;;;;;;;24.20;41.02;100396.66;5058102;28;20026;-81
2023/09/30 07:44:22;;;;;;;11.40;5.25;;;;;;;24.33;41.06;100408.66;5046768;28;20033;-81
2023/09/30 07:46:48;;;;;;;9.75;5.45;;;;;;;24.32;40.14;100402.44;5050631;28;20061;-81
2023/09/30 07:49:13;;;;;;;11.52;5.10;;;;;;;24.34;39.15;100370.22;5051372;28;20041;-86
2023/09/30 07:51:39;;;;;;;11.18;5.10;;;;;;;24.63;39.99;100405.34;5050961;28;20031;-81
2023/09/30 07:54:05;;;;;;;12.95;5.10;;;;;;;24.78;38.47;100408.88;5049868;28;20041;-83
2023/09/30 07:56:30;;;;;;;15.60;5.00;;;;;;;24.83;38.86;100381.50;5042103;28;20018;-81
2023/09/30 07:58:56;;;;;;;13.85;5.38;;;;;;;24.86;37.72;100387.13;5049192;28;20124;-83
2023/09/30 08:01:21;;;;;;;12.18;5.65;;;;;;;24.88;39.00;100383.28;5070405;28;20025;-81
2023/09/30 08:03:47;;;;;;;12.93;5.53;;;;;;;25.31;38.49;100369.22;5049388;28;20033;-82
2023/09/30 08:06:13;;;;;;;13.77;6.22;;;;;;;25.73;38.01;100388.94;5064074;28;20028;-83
2023/09/30 08:08:39;;;;;;;9.13;4.88;;;;;;;25.73;37.08;100389.75;5055648;28;20029;-83
2023/09/30 08:11:05;;;;;;;11.50;4.88;;;;;;;25.73;37.10;100369.81;5054310;28;20036;-83
2023/09/30 08:13:33;;;;;;;14.02;5.60;;;;;;;25.97;36.01;100392.16;5050615;28;20052;-83
2023/09/30 08:16:01;;;;;;;13.35;5.25;;;;;;;26.01;35.46;100386.84;5050818;28;20529;-82
2023/09/30 08:18:29;;;;;;;16.88;5.70;;;;;;;26.41;35.36;100390.38;5049232;28;20552;-84
2023/09/30 08:20:55;;;;;;;13.73;5.75;;;;;;;26.36;34.42;100363.19;5049367;28;20031;-82
2023/09/30 08:23:21;;;;;;;8.65;5.13;;;;;;;26.37;34.24;100372.97;5050490;28;20111;-81
2023/09/30 08:25:46;;;;;;;15.57;5.00;;;;;;;26.59;33.55;100398.66;5050020;28;20029;-84
2023/09/30 08:28:12;;;;;;;9.68;4.57;;;;;;;26.45;33.71;100394.06;5049282;28;20039;-83
2023/09/30 08:30:38;;;;;;;12.45;5.20;;;;;;;26.50;34.42;100382.22;5050136;28;20489;-79
2023/09/30 08:33:05;;;;;;;16.45;5.88;;;;;;;26.73;34.21;100379.38;5060778;28;20103;-82
2023/09/30 08:35:31;;;;;;;9.82;5.18;;;;;;;26.61;32.71;100369.06;5068849;28;20054;-82
2023/09/30 08:37:58;;;;;;;13.20;5.03;;;;;;;26.88;33.06;100387.09;5063055;28;20052;-81
2023/09/30 08:40:23;;;;;;;21.15;5.88;;;;;;;26.90;33.64;100373.09;5053563;28;20071;-77
2023/09/30 08:42:51;;;;;;;11.20;4.72;;;;;;;26.72;32.33;100389.50;5049559;28;20057;-83
2023/09/30 08:45:18;;;;;;;7.35;4.20;;;;;;;26.58;32.19;100394.28;5050643;28;20060;-80
2023/09/30 08:47:43;;;;;;;11.15;4.63;;;;;;;26.73;32.76;100369.22;5065859;28;20052;-81
2023/09/30 08:50:10;;;;;;;9.32;5.20;;;;;;;26.91;31.89;100347.34;5052123;28;20033;-82
2023/09/30 08:52:40;;;;;;;13.63;4.97;;;;;;;27.10;32.05;100360.72;5059488;28;20025;-83
2023/09/30 08:55:09;;;;;;;11.95;4.93;;;;;;;27.19;31.27;100361.50;5053786;28;20025;-83
2023/09/30 08:57:40;;;;;;;17.77;4.72;;;;;;;27.33;31.41;100386.00;5073134;28;20025;-85
2023/09/30 09:00:12;;;;;;;11.45;4.88;;;;;;;27.40;30.55;100378.09;5053370;28;20025;-83
2023/09/30 09:02:41;;;;;;;10.55;4.70;;;;;;;27.36;31.07;100371.66;5052407;28;20078;-82
2023/09/30 09:05:07;;;;;;;10.43;4.63;;;;;;;27.78;30.38;100369.94;5051839;28;20094;-81
2023/09/30 09:07:34;;;;;;;15.10;5.10;;;;;;;27.88;29.65;100385.25;5052008;28;20052;-82
2023/09/30 09:10:12;;;;;;;13.87;5.23;;;;;;;28.15;30.24;100388.72;5070043;28;20597;-82
2023/09/30 09:12:39;;;;;;;9.20;4.75;;;;;;;28.21;29.81;100359.97;5050136;28;20020;-82
2023/09/30 09:15:09;;;;;;;14.90;5.10;;;;;;;28.09;29.08;100368.09;5053601;28;20029;-81
2023/09/30 09:17:43;;;;;;;11.77;4.85;;;;;;;28.09;29.44;100368.88;5052246;28;20058;-82
2023/09/30 09:20:19;;;;;;;11.93;4.90;;;;;;;28.27;29.70;100361.38;5056967;28;20544;-86
2023/09/30 09:22:46;;;;;;;9.35;4.53;;;;;;;28.48;28.92;100358.66;5064242;28;20036;-82
2023/09/30 09:25:12;;;;;;;12.40;4.85;;;;;;;28.19;29.22;100367.72;5053321;28;20037;-82
2023/09/30 09:27:38;;;;;;;11.40;5.65;;;;;;;28.62;29.17;100358.44;5052348;28;20040;-83
2023/09/30 09:30:23;;;;;;;10.93;4.43;;;;;;;28.45;28.65;100375.81;5053341;28;20025;-83
2023/09/30 09:33:01;;;;;;;13.95;4.70;;;;;;;28.60;28.59;100377.19;5053225;28;20082;-82
2023/09/30 09:35:32;;;;;;;11.13;4.35;;;;;;;28.38;29.88;100365.38;5052895;28;20090;-82
2023/09/30 09:38:05;;;;;;;15.68;5.07;;;;;;;29.00;27.75;100346.53;5069293;28;20031;-82
2023/09/30 09:40:37;;;;;;;14.43;4.90;;;;;;;28.40;25.81;100349.38;5054154;28;20033;-82
2023/09/30 09:43:05;;;;;;;9.55;4.30;;;;;;;28.04;27.42;100323.28;5034233;28;20040;-81
2023/09/30 09:45:34;;;;;;;8.75;4.20;;;;;;;28.20;26.56;100344.66;5053066;28;20037;-83
2023/09/30 09:48:01;;;;;;;14.15;4.55;;;;;;;28.23;25.91;100360.44;5053004;28;20056;-81
2023/09/30 09:50:26;;;;;;;11.30;4.03;;;;;;;28.73;25.39;100348.69;5054042;28;20040;-82
2023/09/30 09:52:54;;;;;;;9.95;4.10;;;;;;;28.89;25.10;100348.06;5054089;28;20056;-83
2023/09/30 09:55:22;;;;;;;11.63;4.15;;;;;;;29.04;24.44;100342.00;5052483;28;20428;-83
2023/09/30 09:57:48;;;;;;;10.98;4.35;;;;;;;29.32;25.04;100335.91;5065676;28;20040;-84
2023/09/30 10:00:20;;;;;;;10.82;4.55;;;;;;;29.51;23.63;100347.19;5071855;28;20051;-82
2023/09/30 10:02:47;;;;;;;14.00;4.65;;;;;;;29.46;23.89;100344.66;5072744;28;20036;-80
2023/09/30 10:05:13;;;;;;;9.85;4.13;;;;;;;29.27;24.37;100328.69;5055778;28;20040;-82
2023/09/30 10:07:45;;;;;;;9.88;3.97;;;;;;;29.54;24.14;100337.47;5052903;28;20083;-81
2023/09/30 10:10:18;;;;;;;9.32;3.85;;;;;;;29.59;23.49;100318.03;5052710;28;20100;-83
2023/09/30 10:12:43;;;;;;;16.55;4.30;;;;;;;29.39;23.88;100327.94;5056603;28;20540;-84
2023/09/30 10:15:31;;;;;;;12.80;4.18;;;;;;;29.94;23.82;100329.41;5052618;28;20103;-81
2023/09/30 10:18:03;;;;;;;10.43;3.70;;;;;;;29.60;23.17;100303.94;5051819;28;20493;-81
2023/09/30 10:20:35;;;;;;;8.77;4.05;;;;;;;29.60;23.21;100308.63;5051252;28;20417;-80
2023/09/30 10:23:26;;;;;;;10.00;3.67;;;;;;;29.89;23.46;100331.59;5067964;28;20075;-79
2023/09/30 10:25:57;;;;;;;6.65;3.58;;;;;;;29.61;22.59;100310.25;5052567;28;20575;-81
2023/09/30 10:28:40;;;;;;;9.02;3.97;;;;;;;29.74;22.91;100308.34;5052449;28;20036;-80
2023/09/30 10:31:20;;;;;;;10.13;4.20;;;;;;;29.71;22.87;100320.81;5067850;28;20024;-80
2023/09/30 10:34:01;;;;;;;7.55;3.60;;;;;;;29.76;23.04;100322.53;5040914;28;20047;-81
2023/09/30 10:36:32;;;;;;;14.98;5.82;;;;;;;29.40;23.19;100307.56;5052338;28;20426;-82
2023/09/30 10:38:59;;;;;;;9.98;6.00;;;;;;;29.95;23.33;100309.00;5051907;28;20020;-81
2023/09/30 10:41:40;;;;;;;10.32;3.85;;;;;;;29.63;22.84;100307.97;5055276;28;20056;-81
2023/09/30 10:44:25;;;;;;;10.60;3.97;;;;;;;29.54;22.99;100302.53;5050093;28;20127;-83
2023/09/30 10:46:55;;;;;;;10.15;3.85;;;;;;;29.84;22.79;100288.63;5050855;28;20131;-85
2023/09/30 10:49:23;;;;;;;10.52;3.95;;;;;;;29.82;23.17;100266.19;5030820;28;20025;-80
2023/09/30 10:51:52;;;;;;;9.30;3.85;;;;;;;29.69;22.79;100283.78;5056333;28;20056;-79
2023/09/30 10:54:25;;;;;;;9.30;3.60;;;;;;;30.00;22.74;100277.75;5068883;28;20036;-80
2023/09/30 10:56:52;;;;;;;10.70;3.85;;;;;;;30.04;22.79;100257.47;5051807;28;20021;-82
2023/09/30 10:59:25;;;;;;;8.25;3.67;;;;;;;30.40;22.89;100288.84;5052204;28;20501;-81
2023/09/30 11:01:52;;;;;;;6.78;3.80;;;;;;;29.92;22.70;100292.44;5066874;28;20042;-82
2023/09/30 11:04:19;;;;;;;;;;;;;;;30.00;22.44;100289.56;5050140;28;20648;-81
2023/09/30 11:06:45;;;;;;;11.00;4.27;;;;;;;30.66;22.40;100290.34;5049741;28;19916;-80
2023/09/30 11:09:24;;;;;;;10.43;4.28;;;;;;;30.63;22.84;100278.09;5051043;28;20048;-81
2023/09/30 11:11:52;;;;;;;14.43;5.15;;;;;;;30.39;22.08;100278.19;5054226;28;20079;-83
2023/09/30 11:14:28;;;;;;;12.70;4.13;;;;;;;30.46;22.95;100277.56;5048493;28;20029;-85
2023/09/30 11:16:56;;;;;;;7.90;3.70;;;;;;;30.77;22.30;100272.22;5049691;28;20486;-86